createdAt,value
2022-12-23T00:00:37.062Z,55.50
2022-12-23T00:01:37.211Z,51.00
2022-12-23T00:02:37.236Z,47.00
2022-12-23T00:03:37.091Z,39.20
2022-12-23T00:04:37.011Z,48.90
2022-12-23T00:05:38.134Z,48.30
2022-12-23T00:06:37.016Z,43.80
2022-12-23T00:07:37.011Z,45.00
2022-12-23T00:08:36.968Z,52.70
2022-12-23T00:09:36.956Z,54.50
2022-12-23T00:10:36.945Z,53.70
2022-12-23T00:11:36.949Z,51.40
2022-12-23T00:12:36.928Z,59.30
2022-12-23T00:13:36.899Z,55.90
2022-12-23T00:14:36.925Z,46.70
2022-12-23T00:15:36.886Z,46.80
2022-12-23T00:16:37.003Z,64.10
2022-12-23T00:17:36.871Z,52.70
2022-12-23T00:18:36.889Z,50.80
2022-12-23T00:19:36.838Z,49.80
2022-12-23T00:20:36.832Z,65.50
2022-12-23T00:21:36.833Z,77.00
2022-12-23T00:22:36.822Z,46.40
2022-12-23T00:23:36.804Z,61.90
2022-12-23T00:24:36.783Z,59.50
2022-12-23T00:25:36.832Z,64.60
2022-12-23T00:26:36.775Z,82.30
2022-12-23T00:27:37.829Z,66.30
2022-12-23T00:28:36.751Z,54.90
2022-12-23T00:29:36.794Z,52.00
2022-12-23T00:30:36.733Z,57.90
2022-12-23T00:31:36.795Z,48.70
2022-12-23T00:32:36.731Z,59.50
2022-12-23T00:33:36.740Z,54.60
2022-12-23T00:34:36.674Z,45.50
2022-12-23T00:35:36.765Z,52.10
2022-12-23T00:36:36.704Z,50.50
2022-12-23T00:37:36.676Z,56.80
2022-12-23T00:38:36.626Z,56.30
2022-12-23T00:39:36.637Z,60.40
2022-12-23T00:40:36.651Z,71.40
2022-12-23T00:41:36.599Z,60.50
2022-12-23T00:42:36.609Z,71.60
2022-12-23T00:43:36.577Z,57.00
2022-12-23T00:44:36.573Z,62.30
2022-12-23T00:45:36.608Z,65.00
2022-12-23T00:46:36.548Z,59.00
2022-12-23T00:47:36.561Z,57.70
2022-12-23T00:48:36.515Z,61.10
2022-12-23T00:49:36.515Z,56.90
2022-12-23T00:50:36.511Z,62.40
2022-12-23T00:51:36.481Z,62.10
2022-12-23T00:52:36.487Z,57.40
2022-12-23T00:53:36.497Z,71.70
2022-12-23T00:54:36.480Z,56.10
2022-12-23T00:55:36.436Z,58.00
2022-12-23T00:56:36.433Z,67.90
2022-12-23T00:57:36.454Z,65.10
2022-12-23T00:58:36.407Z,64.50
2022-12-23T00:59:36.414Z,62.80
2022-12-23T01:00:41.407Z,68.10
2022-12-23T01:01:36.508Z,63.90
2022-12-23T01:02:36.574Z,64.00
2022-12-23T01:03:36.386Z,68.20
2022-12-23T01:04:36.379Z,97.50
2022-12-23T01:05:36.358Z,139.90
2022-12-23T01:06:36.315Z,47.30
2022-12-23T01:07:36.341Z,57.10
2022-12-23T01:08:36.288Z,93.40
2022-12-23T01:09:36.278Z,55.00
2022-12-23T01:10:36.306Z,87.10
2022-12-23T01:11:36.260Z,105.60
2022-12-23T01:12:36.269Z,78.10
2022-12-23T01:13:36.264Z,67.40
2022-12-23T01:14:36.235Z,72.70
2022-12-23T01:15:36.219Z,146.70
2022-12-23T01:16:36.252Z,91.20
2022-12-23T01:17:36.233Z,94.90
2022-12-23T01:18:36.204Z,89.10
2022-12-23T01:19:36.191Z,63.60
2022-12-23T01:20:36.172Z,65.80
2022-12-23T01:21:36.154Z,64.60
2022-12-23T01:22:36.150Z,76.90
2022-12-23T01:23:36.137Z,87.90
2022-12-23T01:24:36.118Z,115.10
2022-12-23T01:25:36.112Z,142.00
2022-12-23T01:26:36.111Z,116.70
2022-12-23T01:27:36.101Z,101.20
2022-12-23T01:28:36.061Z,60.30
2022-12-23T01:29:36.061Z,77.40
2022-12-23T01:30:36.099Z,81.80
2022-12-23T01:31:36.116Z,90.50
2022-12-23T01:32:36.061Z,86.40
2022-12-23T01:33:36.028Z,119.60
2022-12-23T01:34:37.595Z,102.20
2022-12-23T01:35:36.002Z,72.60
2022-12-23T01:36:35.984Z,72.30
2022-12-23T01:37:36.024Z,107.30
2022-12-23T01:38:35.999Z,103.00
2022-12-23T01:39:35.956Z,88.40
2022-12-23T01:40:35.946Z,76.90
2022-12-23T01:41:35.950Z,73.40
2022-12-23T01:42:35.947Z,71.40
2022-12-23T01:43:35.911Z,116.10
2022-12-23T01:44:35.886Z,109.90
2022-12-23T01:45:35.958Z,113.30
2022-12-23T01:46:35.883Z,139.90
2022-12-23T01:47:35.906Z,116.80
2022-12-23T01:48:35.859Z,76.70
2022-12-23T01:49:35.839Z,67.90
2022-12-23T01:50:35.837Z,71.40
2022-12-23T01:51:35.827Z,79.80
2022-12-23T01:52:35.830Z,141.10
2022-12-23T01:53:35.799Z,136.40
2022-12-23T01:54:35.775Z,161.30
2022-12-23T01:55:35.772Z,96.60
2022-12-23T01:56:35.762Z,87.30
2022-12-23T01:57:35.856Z,160.50
2022-12-23T01:58:35.736Z,174.00
2022-12-23T01:59:35.731Z,140.60
2022-12-23T02:00:35.724Z,133.80
2022-12-23T02:01:35.798Z,126.40
2022-12-23T02:02:35.843Z,108.70
2022-12-23T02:03:35.725Z,125.90
2022-12-23T02:04:35.667Z,141.80
2022-12-23T02:05:35.694Z,147.10
2022-12-23T02:06:35.648Z,115.80
2022-12-23T02:07:35.700Z,154.70
2022-12-23T02:08:35.647Z,113.80
2022-12-23T02:09:35.644Z,121.20
2022-12-23T02:10:35.612Z,117.40
2022-12-23T02:11:35.614Z,185.90
2022-12-23T02:12:35.605Z,101.80
2022-12-23T02:13:35.571Z,168.00
2022-12-23T02:14:35.606Z,198.40
2022-12-23T02:15:35.563Z,172.80
2022-12-23T02:16:35.613Z,141.80
2022-12-23T02:17:35.564Z,119.70
2022-12-23T02:18:35.531Z,107.30
2022-12-23T02:19:35.553Z,113.10
2022-12-23T02:20:35.567Z,146.80
2022-12-23T02:21:35.496Z,93.80
2022-12-23T02:22:35.534Z,90.80
2022-12-23T02:23:35.459Z,122.60
2022-12-23T02:24:35.451Z,108.30
2022-12-23T02:25:35.459Z,182.50
2022-12-23T02:26:35.436Z,201.40
2022-12-23T02:27:36.212Z,161.90
2022-12-23T02:28:35.403Z,97.70
2022-12-23T02:29:35.404Z,104.90
2022-12-23T02:30:35.429Z,89.60
2022-12-23T02:31:35.393Z,96.30
2022-12-23T02:32:35.387Z,92.10
2022-12-23T02:33:35.362Z,93.50
2022-12-23T02:34:35.341Z,133.00
2022-12-23T02:35:35.340Z,157.00
2022-12-23T02:36:35.313Z,170.20
2022-12-23T02:37:35.324Z,170.10
2022-12-23T02:38:35.301Z,114.40
2022-12-23T02:39:35.296Z,118.50
2022-12-23T02:40:35.267Z,135.80
2022-12-23T02:41:35.305Z,198.10
2022-12-23T02:42:35.275Z,148.10
2022-12-23T02:43:35.241Z,96.40
2022-12-23T02:44:35.232Z,128.20
2022-12-23T02:45:35.249Z,177.90
2022-12-23T02:46:35.262Z,170.40
2022-12-23T02:47:35.235Z,225.60
2022-12-23T02:48:35.188Z,116.00
2022-12-23T02:49:35.171Z,131.10
2022-12-23T02:50:35.168Z,147.50
2022-12-23T02:51:35.145Z,139.50
2022-12-23T02:52:35.156Z,242.70
2022-12-23T02:53:35.134Z,131.70
2022-12-23T02:54:35.112Z,100.10
2022-12-23T02:55:35.121Z,166.90
2022-12-23T02:56:35.091Z,194.90
2022-12-23T02:57:35.099Z,189.20
2022-12-23T02:58:35.088Z,104.60
2022-12-23T02:59:35.076Z,182.40
2022-12-23T03:00:35.056Z,187.50
2022-12-23T03:01:35.151Z,204.30
2022-12-23T03:02:35.421Z,141.30
2022-12-23T03:03:35.151Z,177.70
2022-12-23T03:04:35.018Z,159.70
2022-12-23T03:05:34.990Z,208.00
2022-12-23T03:06:34.995Z,278.40
2022-12-23T03:07:34.999Z,212.20
2022-12-23T03:08:34.994Z,226.40
2022-12-23T03:09:34.952Z,155.10
2022-12-23T03:10:34.939Z,164.60
2022-12-23T03:11:34.945Z,135.90
2022-12-23T03:12:34.945Z,124.10
2022-12-23T03:13:34.906Z,184.10
2022-12-23T03:14:34.936Z,208.20
2022-12-23T03:15:34.974Z,141.00
2022-12-23T03:16:34.896Z,113.70
2022-12-23T03:17:34.932Z,141.50
2022-12-23T03:18:34.874Z,101.50
2022-12-23T03:19:34.840Z,137.60
2022-12-23T03:20:34.821Z,248.10
2022-12-23T03:21:34.822Z,199.90
2022-12-23T03:22:34.809Z,194.90
2022-12-23T03:23:34.816Z,141.50
2022-12-23T03:24:34.799Z,145.50
2022-12-23T03:25:34.777Z,168.80
2022-12-23T03:26:34.762Z,101.90
2022-12-23T03:27:34.762Z,102.40
2022-12-23T03:28:34.774Z,124.10
2022-12-23T03:29:34.719Z,133.50
2022-12-23T03:30:34.749Z,140.10
2022-12-23T03:31:34.795Z,267.10
2022-12-23T03:32:34.703Z,166.60
2022-12-23T03:33:34.714Z,142.50
2022-12-23T03:34:34.678Z,109.10
2022-12-23T03:35:34.671Z,168.70
2022-12-23T03:36:34.647Z,146.20
2022-12-23T03:37:34.661Z,154.40
2022-12-23T03:38:34.654Z,134.00
2022-12-23T03:39:34.633Z,180.10
2022-12-23T03:40:34.650Z,234.00
2022-12-23T03:41:34.597Z,206.30
2022-12-23T03:42:34.582Z,117.90
2022-12-23T03:43:34.589Z,205.40
2022-12-23T03:44:34.566Z,121.40
2022-12-23T03:45:39.717Z,264.30
2022-12-23T03:46:34.709Z,115.90
2022-12-23T03:47:34.530Z,82.00
2022-12-23T03:48:34.559Z,206.30
2022-12-23T03:49:34.517Z,165.30
2022-12-23T03:50:34.498Z,183.30
2022-12-23T03:51:34.504Z,120.10
2022-12-23T03:52:34.472Z,126.50
2022-12-23T03:53:34.503Z,160.50
2022-12-23T03:54:34.468Z,193.70
2022-12-23T03:55:34.464Z,152.00
2022-12-23T03:56:34.435Z,162.40
2022-12-23T03:57:34.418Z,204.90
2022-12-23T03:58:34.435Z,266.90
2022-12-23T03:59:34.413Z,112.90
2022-12-23T04:00:34.382Z,109.50
2022-12-23T04:01:34.479Z,172.50
2022-12-23T04:02:34.446Z,188.30
2022-12-23T04:03:34.435Z,126.50
2022-12-23T04:04:34.363Z,135.20
2022-12-23T04:05:34.339Z,101.20
2022-12-23T04:06:34.316Z,106.50
2022-12-23T04:07:34.320Z,123.30
2022-12-23T04:08:34.304Z,128.20
2022-12-23T04:09:34.289Z,109.40
2022-12-23T04:10:34.295Z,154.90
2022-12-23T04:11:34.261Z,143.30
2022-12-23T04:12:34.262Z,92.50
2022-12-23T04:13:34.280Z,162.90
2022-12-23T04:14:34.235Z,132.70
2022-12-23T04:15:34.227Z,167.90
2022-12-23T04:16:34.253Z,144.30
2022-12-23T04:17:34.192Z,182.00
2022-12-23T04:18:34.203Z,129.00
2022-12-23T04:19:34.191Z,118.90
2022-12-23T04:20:34.161Z,118.80
2022-12-23T04:21:34.171Z,98.50
2022-12-23T04:22:34.165Z,122.50
2022-12-23T04:23:34.151Z,103.80
2022-12-23T04:24:34.126Z,151.90
2022-12-23T04:25:34.123Z,173.00
2022-12-23T04:26:34.091Z,102.40
2022-12-23T04:27:34.077Z,98.20
2022-12-23T04:28:34.090Z,155.30
2022-12-23T04:29:34.071Z,122.10
2022-12-23T04:30:34.959Z,98.40
2022-12-23T04:31:34.145Z,116.50
2022-12-23T04:32:34.053Z,112.80
2022-12-23T04:33:34.049Z,126.80
2022-12-23T04:34:34.023Z,89.30
2022-12-23T04:35:33.995Z,76.00
2022-12-23T04:36:33.988Z,107.20
2022-12-23T04:37:33.977Z,226.50
2022-12-23T04:38:33.990Z,146.80
2022-12-23T04:39:33.966Z,90.20
2022-12-23T04:40:33.951Z,101.90
2022-12-23T04:41:33.951Z,171.00
2022-12-23T04:42:33.945Z,183.10
2022-12-23T04:43:33.929Z,207.30
2022-12-23T04:44:33.893Z,98.90
2022-12-23T04:45:33.888Z,125.10
2022-12-23T04:46:33.959Z,88.70
2022-12-23T04:47:33.862Z,75.90
2022-12-23T04:48:33.879Z,87.60
2022-12-23T04:49:33.842Z,145.40
2022-12-23T04:50:33.860Z,131.50
2022-12-23T04:51:33.827Z,163.90
2022-12-23T04:52:33.812Z,151.20
2022-12-23T04:53:33.818Z,107.40
2022-12-23T04:54:33.789Z,166.80
2022-12-23T04:55:33.796Z,133.20
2022-12-23T04:56:33.792Z,147.20
2022-12-23T04:57:33.749Z,139.60
2022-12-23T04:58:33.770Z,121.50
2022-12-23T04:59:33.737Z,107.50
2022-12-23T05:00:39.153Z,181.90
2022-12-23T05:01:33.918Z,133.20
2022-12-23T05:02:33.799Z,146.20
2022-12-23T05:03:33.771Z,69.00
2022-12-23T05:04:33.732Z,149.20
2022-12-23T05:05:33.675Z,102.50
2022-12-23T05:06:33.657Z,98.70
2022-12-23T05:07:33.651Z,91.90
2022-12-23T05:08:33.646Z,126.50
2022-12-23T05:09:33.629Z,150.70
2022-12-23T05:10:33.642Z,130.50
2022-12-23T05:11:38.532Z,164.20
2022-12-23T05:12:33.587Z,132.40
2022-12-23T05:13:33.606Z,192.00
2022-12-23T05:14:33.569Z,101.30
2022-12-23T05:15:33.566Z,74.30
2022-12-23T05:16:33.641Z,120.20
2022-12-23T05:17:33.547Z,165.60
2022-12-23T05:18:33.562Z,160.90
2022-12-23T05:19:33.511Z,143.00
2022-12-23T05:20:33.505Z,99.90
2022-12-23T05:21:33.488Z,92.60
2022-12-23T05:22:33.480Z,157.40
2022-12-23T05:23:33.505Z,162.50
2022-12-23T05:24:33.460Z,161.60
2022-12-23T05:25:33.446Z,90.70
2022-12-23T05:26:33.439Z,92.80
2022-12-23T05:27:33.424Z,87.00
2022-12-23T05:28:33.420Z,75.20
2022-12-23T05:29:33.482Z,167.40
2022-12-23T05:30:33.393Z,138.80
2022-12-23T05:31:33.477Z,103.80
2022-12-23T05:32:33.375Z,99.80
2022-12-23T05:33:33.411Z,97.50
2022-12-23T05:34:33.361Z,106.50
2022-12-23T05:35:33.353Z,170.00
2022-12-23T05:36:33.326Z,127.10
2022-12-23T05:37:33.313Z,84.00
2022-12-23T05:38:33.307Z,89.60
2022-12-23T05:39:33.297Z,119.30
2022-12-23T05:40:33.787Z,137.60
2022-12-23T05:41:33.273Z,117.00
2022-12-23T05:42:33.251Z,109.70
2022-12-23T05:43:33.248Z,105.90
2022-12-23T05:44:33.243Z,111.30
2022-12-23T05:45:33.277Z,93.40
2022-12-23T05:46:33.322Z,107.60
2022-12-23T05:47:33.200Z,158.10
2022-12-23T05:48:33.197Z,88.60
2022-12-23T05:49:33.202Z,110.70
2022-12-23T05:50:33.178Z,91.20
2022-12-23T05:51:33.147Z,106.00
2022-12-23T05:52:33.170Z,126.70
2022-12-23T05:53:33.134Z,132.90
2022-12-23T05:54:33.171Z,79.30
2022-12-23T05:55:33.107Z,109.50
2022-12-23T05:56:33.107Z,71.80
2022-12-23T05:57:33.126Z,71.90
2022-12-23T05:58:33.085Z,85.10
2022-12-23T05:59:33.071Z,90.10
2022-12-23T06:00:33.062Z,143.10
2022-12-23T06:01:33.070Z,133.80
2022-12-23T06:02:33.296Z,145.90
2022-12-23T06:03:33.321Z,220.60
2022-12-23T06:04:33.010Z,200.50
2022-12-23T06:05:32.997Z,91.70
2022-12-23T06:06:33.002Z,165.20
2022-12-23T06:07:32.995Z,143.70
2022-12-23T06:08:32.967Z,166.70
2022-12-23T06:09:32.969Z,131.90
2022-12-23T06:10:32.976Z,196.30
2022-12-23T06:11:32.936Z,104.50
2022-12-23T06:12:32.927Z,137.60
2022-12-23T06:13:32.925Z,137.30
2022-12-23T06:14:32.924Z,207.20
2022-12-23T06:15:32.901Z,121.40
2022-12-23T06:16:32.909Z,130.60
2022-12-23T06:17:32.959Z,133.30
2022-12-23T06:18:32.872Z,174.60
2022-12-23T06:19:32.846Z,159.40
2022-12-23T06:20:32.854Z,139.40
2022-12-23T06:21:32.861Z,147.60
2022-12-23T06:22:32.811Z,105.00
2022-12-23T06:23:32.799Z,177.70
2022-12-23T06:24:32.799Z,170.00
2022-12-23T06:25:32.828Z,150.40
2022-12-23T06:26:32.776Z,183.50
2022-12-23T06:27:32.764Z,124.50
2022-12-23T06:28:32.776Z,223.50
2022-12-23T06:29:32.734Z,181.20
2022-12-23T06:30:32.736Z,177.70
2022-12-23T06:31:32.769Z,168.80
2022-12-23T06:32:37.904Z,172.80
2022-12-23T06:33:32.706Z,246.20
2022-12-23T06:34:32.684Z,265.80
2022-12-23T06:35:32.749Z,193.00
2022-12-23T06:36:32.665Z,206.80
2022-12-23T06:37:32.650Z,126.40
2022-12-23T06:38:32.665Z,209.10
2022-12-23T06:39:32.636Z,191.70
2022-12-23T06:40:32.640Z,204.50
2022-12-23T06:41:32.613Z,146.20
2022-12-23T06:42:32.612Z,245.50
2022-12-23T06:43:32.601Z,192.90
2022-12-23T06:44:32.568Z,218.90
2022-12-23T06:45:32.623Z,200.00
2022-12-23T06:46:32.587Z,214.60
2022-12-23T06:47:32.535Z,227.80
2022-12-23T06:48:32.553Z,182.60
2022-12-23T06:49:32.515Z,309.40
2022-12-23T06:50:32.520Z,192.80
2022-12-23T06:51:33.570Z,272.10
2022-12-23T06:52:32.501Z,181.60
2022-12-23T06:53:32.479Z,155.50
2022-12-23T06:54:32.480Z,208.50
2022-12-23T06:55:32.464Z,208.10
2022-12-23T06:56:32.453Z,170.40
2022-12-23T06:57:32.425Z,161.20
2022-12-23T06:58:32.464Z,230.50
2022-12-23T06:59:32.399Z,217.00
2022-12-23T07:00:32.399Z,165.00
2022-12-23T07:01:32.497Z,149.70
2022-12-23T07:02:32.437Z,239.10
2022-12-23T07:03:32.393Z,146.10
2022-12-23T07:04:32.360Z,140.40
2022-12-23T07:05:36.944Z,203.30
2022-12-23T07:06:32.330Z,203.20
2022-12-23T07:07:32.320Z,183.50
2022-12-23T07:08:32.323Z,170.60
2022-12-23T07:09:32.295Z,167.20
2022-12-23T07:10:32.295Z,154.00
2022-12-23T07:11:32.275Z,119.50
2022-12-23T07:12:32.258Z,153.20
2022-12-23T07:13:32.249Z,116.60
2022-12-23T07:14:32.240Z,121.40
2022-12-23T07:15:32.281Z,157.40
2022-12-23T07:16:32.240Z,143.20
2022-12-23T07:17:32.225Z,188.90
2022-12-23T07:18:32.193Z,134.30
2022-12-23T07:19:32.198Z,156.10
2022-12-23T07:20:32.195Z,186.40
2022-12-23T07:21:32.159Z,143.80
2022-12-23T07:22:32.174Z,147.50
2022-12-23T07:23:32.140Z,142.30
2022-12-23T07:24:32.143Z,135.40
2022-12-23T07:25:32.134Z,215.80
2022-12-23T07:26:32.119Z,152.20
2022-12-23T07:27:32.127Z,253.90
2022-12-23T07:28:32.100Z,196.60
2022-12-23T07:29:32.633Z,172.90
2022-12-23T07:30:32.076Z,198.90
2022-12-23T07:31:32.157Z,160.00
2022-12-23T07:32:32.029Z,168.30
2022-12-23T07:33:32.026Z,99.20
2022-12-23T07:34:32.030Z,97.60
2022-12-23T07:35:32.016Z,159.60
2022-12-23T07:36:32.001Z,209.10
2022-12-23T07:37:31.998Z,175.40
2022-12-23T07:38:31.973Z,113.90
2022-12-23T07:39:31.979Z,116.30
2022-12-23T07:40:31.979Z,143.00
2022-12-23T07:41:31.947Z,72.50
2022-12-23T07:42:47.385Z,131.50
2022-12-23T07:43:31.956Z,106.90
2022-12-23T07:44:31.913Z,92.60
2022-12-23T07:45:31.980Z,98.90
2022-12-23T07:46:31.949Z,108.30
2022-12-23T07:47:31.872Z,81.60
2022-12-23T07:48:31.869Z,102.20
2022-12-23T07:49:31.863Z,93.80
2022-12-23T07:50:31.858Z,128.10
2022-12-23T07:51:31.829Z,132.70
2022-12-23T07:52:31.815Z,109.50
2022-12-23T07:53:31.812Z,99.90
2022-12-23T07:54:31.793Z,108.90
2022-12-23T07:55:31.802Z,107.10
2022-12-23T07:56:31.785Z,137.90
2022-12-23T07:57:31.756Z,101.10
2022-12-23T07:58:31.751Z,143.50
2022-12-23T07:59:31.740Z,115.00
2022-12-23T08:00:31.737Z,122.40
2022-12-23T08:01:31.883Z,121.40
2022-12-23T08:02:32.040Z,142.20
2022-12-23T08:03:31.756Z,105.20
2022-12-23T08:04:31.727Z,183.30
2022-12-23T08:05:31.778Z,146.10
2022-12-23T08:06:31.667Z,109.10
2022-12-23T08:07:31.651Z,145.80
2022-12-23T08:08:31.648Z,80.00
2022-12-23T08:09:31.634Z,99.10
2022-12-23T08:10:31.639Z,116.50
2022-12-23T08:11:31.606Z,110.30
2022-12-23T08:12:31.610Z,100.80
2022-12-23T08:13:31.608Z,127.70
2022-12-23T08:14:31.571Z,151.80
2022-12-23T08:15:31.579Z,177.30
2022-12-23T08:16:34.318Z,227.30
2022-12-23T08:17:31.564Z,192.30
2022-12-23T08:18:31.569Z,187.20
2022-12-23T08:19:31.543Z,125.80
2022-12-23T08:20:31.522Z,119.90
2022-12-23T08:21:31.542Z,150.70
2022-12-23T08:22:31.489Z,79.10
2022-12-23T08:23:31.482Z,76.90
2022-12-23T08:24:31.465Z,99.70
2022-12-23T08:25:31.460Z,76.90
2022-12-23T08:26:31.484Z,81.80
2022-12-23T08:27:31.465Z,107.70
2022-12-23T08:28:31.423Z,154.40
2022-12-23T08:29:36.203Z,144.60
2022-12-23T08:30:31.460Z,186.60
2022-12-23T08:31:31.555Z,145.20
2022-12-23T08:32:31.472Z,130.70
2022-12-23T08:33:31.376Z,123.10
2022-12-23T08:34:31.425Z,106.70
2022-12-23T08:35:31.420Z,112.70
2022-12-23T08:36:31.343Z,92.30
2022-12-23T08:37:31.343Z,92.00
2022-12-23T08:38:31.360Z,123.30
2022-12-23T08:39:31.300Z,101.60
2022-12-23T08:40:31.297Z,109.60
2022-12-23T08:41:31.271Z,143.80
2022-12-23T08:42:31.267Z,129.80
2022-12-23T08:43:35.740Z,166.60
2022-12-23T08:44:31.258Z,126.30
2022-12-23T08:45:31.251Z,108.20
2022-12-23T08:46:31.303Z,129.30
2022-12-23T08:47:31.206Z,154.80
2022-12-23T08:48:31.273Z,109.80
2022-12-23T08:49:31.205Z,171.00
2022-12-23T08:50:31.182Z,146.80
2022-12-23T08:51:31.211Z,167.90
2022-12-23T08:52:31.161Z,148.90
2022-12-23T08:53:31.165Z,136.40
2022-12-23T08:54:31.130Z,118.70
2022-12-23T08:55:31.135Z,136.40
2022-12-23T08:56:31.180Z,102.00
2022-12-23T08:57:31.168Z,125.80
2022-12-23T08:58:31.129Z,123.20
2022-12-23T08:59:31.142Z,175.00
2022-12-23T09:00:31.063Z,101.00
2022-12-23T09:01:31.459Z,121.30
2022-12-23T09:02:31.400Z,86.80
2022-12-23T09:03:31.223Z,95.40
2022-12-23T09:04:31.306Z,104.80
2022-12-23T09:05:31.394Z,147.20
2022-12-23T09:06:31.216Z,108.90
2022-12-23T09:07:31.133Z,68.70
2022-12-23T09:08:31.093Z,118.00
2022-12-23T09:09:31.317Z,99.60
2022-12-23T09:10:31.547Z,52.50
2022-12-23T09:11:31.185Z,103.10
2022-12-23T09:12:31.138Z,142.20
2022-12-23T09:13:35.638Z,96.60
2022-12-23T09:14:30.991Z,94.10
2022-12-23T09:15:31.199Z,116.50
2022-12-23T09:16:31.040Z,112.70
2022-12-23T09:17:30.977Z,67.10
2022-12-23T09:18:31.444Z,78.20
2022-12-23T09:19:31.055Z,71.30
2022-12-23T09:20:30.962Z,88.50
2022-12-23T09:21:31.083Z,123.80
2022-12-23T09:22:31.291Z,79.20
2022-12-23T09:23:30.960Z,64.00
2022-12-23T09:24:31.076Z,61.70
2022-12-23T09:25:31.097Z,76.50
2022-12-23T09:26:30.824Z,61.50
2022-12-23T09:27:30.874Z,50.90
2022-12-23T09:28:30.987Z,54.20
2022-12-23T09:29:30.946Z,52.20
2022-12-23T09:30:30.738Z,78.80
2022-12-23T09:31:36.902Z,89.10
2022-12-23T09:32:30.736Z,62.20
2022-12-23T09:33:30.862Z,66.10
2022-12-23T09:34:30.953Z,75.60
2022-12-23T09:35:30.769Z,43.70
2022-12-23T09:36:30.849Z,39.30
2022-12-23T09:37:30.662Z,55.70
2022-12-23T09:38:30.653Z,94.00
2022-12-23T09:39:30.655Z,48.30
2022-12-23T09:40:30.629Z,42.10
2022-12-23T09:41:30.676Z,53.30
2022-12-23T09:42:30.597Z,49.00
2022-12-23T09:43:30.630Z,33.90
2022-12-23T09:44:30.584Z,34.10
2022-12-23T09:45:35.474Z,39.50
2022-12-23T09:46:30.920Z,38.80
2022-12-23T09:47:31.106Z,54.30
2022-12-23T09:48:30.922Z,43.90
2022-12-23T09:49:30.959Z,43.40
2022-12-23T09:50:30.739Z,43.30
2022-12-23T09:51:31.160Z,41.60
2022-12-23T09:52:30.828Z,44.70
2022-12-23T09:53:30.499Z,39.90
2022-12-23T09:54:30.490Z,42.00
2022-12-23T09:55:30.459Z,43.70
2022-12-23T09:56:30.489Z,41.10
2022-12-23T09:57:30.445Z,39.80
2022-12-23T09:58:30.472Z,34.60
2022-12-23T09:59:30.433Z,46.40
2022-12-23T10:00:30.446Z,38.40
2022-12-23T10:01:30.540Z,36.60
2022-12-23T10:02:30.606Z,42.70
2022-12-23T10:03:30.653Z,35.00
2022-12-23T10:04:30.502Z,36.40
2022-12-23T10:05:30.352Z,48.40
2022-12-23T10:06:30.352Z,36.80
2022-12-23T10:07:30.754Z,35.30
2022-12-23T10:08:30.341Z,38.40
2022-12-23T10:09:30.307Z,35.60
2022-12-23T10:10:30.334Z,36.70
2022-12-23T10:11:30.319Z,36.50
2022-12-23T10:12:34.344Z,41.20
2022-12-23T10:13:30.289Z,44.80
2022-12-23T10:14:30.269Z,36.10
2022-12-23T10:15:30.262Z,40.60
2022-12-23T10:16:30.253Z,44.30
2022-12-23T10:17:30.242Z,38.40
2022-12-23T10:18:30.263Z,45.90
2022-12-23T10:19:30.306Z,57.00
2022-12-23T10:20:30.195Z,47.30
2022-12-23T10:21:30.233Z,44.80
2022-12-23T10:22:30.166Z,40.50
2022-12-23T10:23:30.175Z,40.40
2022-12-23T10:24:30.139Z,37.50
2022-12-23T10:25:30.146Z,40.40
2022-12-23T10:26:30.109Z,40.80
2022-12-23T10:27:30.097Z,37.00
2022-12-23T10:28:30.255Z,38.60
2022-12-23T10:29:30.097Z,38.60
2022-12-23T10:31:40.342Z,34.10
2022-12-23T10:32:30.084Z,41.90
2022-12-23T10:33:30.039Z,40.70
2022-12-23T10:34:36.606Z,42.30
2022-12-23T10:35:30.036Z,36.30
2022-12-23T10:36:30.048Z,39.40
2022-12-23T10:37:36.547Z,44.20
2022-12-23T10:38:29.971Z,46.10
2022-12-23T10:39:29.994Z,39.00
2022-12-23T10:40:29.949Z,43.20
2022-12-23T10:41:29.952Z,41.50
2022-12-23T10:42:29.933Z,45.50
2022-12-23T10:43:30.083Z,35.70
2022-12-23T10:44:29.931Z,36.00
2022-12-23T10:45:29.898Z,41.90
2022-12-23T10:46:29.995Z,42.70
2022-12-23T10:47:29.876Z,44.50
2022-12-23T10:48:29.864Z,39.30
2022-12-23T10:49:29.855Z,43.70
2022-12-23T10:50:29.859Z,43.00
2022-12-23T10:51:29.832Z,36.60
2022-12-23T10:52:29.825Z,50.10
2022-12-23T10:53:29.929Z,40.70
2022-12-23T10:54:29.790Z,45.10
2022-12-23T10:55:33.551Z,44.60
2022-12-23T10:56:29.784Z,39.10
2022-12-23T10:57:29.757Z,34.50
2022-12-23T10:58:29.763Z,38.80
2022-12-23T10:59:29.752Z,40.80
2022-12-23T11:00:29.845Z,42.40
2022-12-23T11:01:29.889Z,38.40
2022-12-23T11:02:29.999Z,36.90
2022-12-23T11:03:30.012Z,41.50
2022-12-23T11:04:29.690Z,47.10
2022-12-23T11:05:29.678Z,44.00
2022-12-23T11:06:36.614Z,44.10
2022-12-23T11:07:46.165Z,36.70
2022-12-23T11:08:29.646Z,38.20
2022-12-23T11:09:29.627Z,45.30
2022-12-23T11:10:29.621Z,36.10
2022-12-23T11:11:31.654Z,42.10
2022-12-23T11:12:29.685Z,39.40
2022-12-23T11:13:29.644Z,42.80
2022-12-23T11:14:29.575Z,37.70
2022-12-23T11:15:29.573Z,36.40
2022-12-23T11:16:29.633Z,38.30
2022-12-23T11:17:29.553Z,48.70
2022-12-23T11:18:30.878Z,38.90
2022-12-23T11:19:29.529Z,39.20
2022-12-23T11:20:29.523Z,38.10
2022-12-23T11:21:29.495Z,38.20
2022-12-23T11:22:29.503Z,40.80
2022-12-23T11:23:29.599Z,39.40
2022-12-23T11:24:29.476Z,48.20
2022-12-23T11:25:29.452Z,38.10
2022-12-23T11:26:29.441Z,42.50
2022-12-23T11:27:29.439Z,40.90
2022-12-23T11:28:29.427Z,44.30
2022-12-23T11:29:29.417Z,33.20
2022-12-23T11:30:30.741Z,45.70
2022-12-23T11:31:29.451Z,37.40
2022-12-23T11:32:29.369Z,40.30
2022-12-23T11:33:29.356Z,35.70
2022-12-23T11:34:29.401Z,40.90
2022-12-23T11:35:29.530Z,37.10
2022-12-23T11:36:29.335Z,35.60
2022-12-23T11:37:29.330Z,34.80
2022-12-23T11:38:29.307Z,35.70
2022-12-23T11:39:29.306Z,33.30
2022-12-23T11:40:29.308Z,36.00
2022-12-23T11:41:29.285Z,38.10
2022-12-23T11:42:29.266Z,40.60
2022-12-23T11:43:29.268Z,42.00
2022-12-23T11:44:29.235Z,41.10
2022-12-23T11:45:29.283Z,37.50
2022-12-23T11:46:29.297Z,41.90
2022-12-23T11:47:29.321Z,35.70
2022-12-23T11:48:29.226Z,37.80
2022-12-23T11:49:29.186Z,36.70
2022-12-23T11:50:29.201Z,37.40
2022-12-23T11:51:29.167Z,36.40
2022-12-23T11:52:29.152Z,38.70
2022-12-23T11:53:29.138Z,34.10
2022-12-23T11:54:29.139Z,37.70
2022-12-23T11:55:29.160Z,34.90
2022-12-23T11:56:29.173Z,42.30
2022-12-23T11:57:29.099Z,47.00
2022-12-23T11:58:29.100Z,39.50
2022-12-23T11:59:29.078Z,37.60
2022-12-23T12:00:29.079Z,41.20
2022-12-23T12:01:29.069Z,34.90
2022-12-23T12:02:29.093Z,41.50
2022-12-23T12:03:29.130Z,45.80
2022-12-23T12:04:29.020Z,43.70
2022-12-23T12:05:29.272Z,38.40
2022-12-23T12:06:29.025Z,37.10
2022-12-23T12:07:29.007Z,42.40
2022-12-23T12:08:28.970Z,36.70
2022-12-23T12:09:28.957Z,37.40
2022-12-23T12:10:28.959Z,40.20
2022-12-23T12:11:28.958Z,36.90
2022-12-23T12:12:28.924Z,36.00
2022-12-23T12:13:28.923Z,41.90
2022-12-23T12:14:28.910Z,42.90
2022-12-23T12:15:28.907Z,40.70
2022-12-23T12:16:29.232Z,34.00
2022-12-23T12:17:28.885Z,35.60
2022-12-23T12:18:28.857Z,34.20
2022-12-23T12:19:29.100Z,36.60
2022-12-23T12:20:28.835Z,33.30
2022-12-23T12:21:28.843Z,36.30
2022-12-23T12:22:28.809Z,33.80
2022-12-23T12:23:28.821Z,34.90
2022-12-23T12:24:28.843Z,41.90
2022-12-23T12:25:28.789Z,36.70
2022-12-23T12:26:28.795Z,38.90
2022-12-23T12:27:29.636Z,38.00
2022-12-23T12:28:28.747Z,39.10
2022-12-23T12:29:28.734Z,33.70
2022-12-23T12:30:28.752Z,41.40
2022-12-23T12:31:28.787Z,35.40
2022-12-23T12:32:28.703Z,29.60
2022-12-23T12:33:28.717Z,34.40
2022-12-23T12:34:28.684Z,33.40
2022-12-23T12:35:28.669Z,37.20
2022-12-23T12:36:28.709Z,34.70
2022-12-23T12:37:28.642Z,35.00
2022-12-23T12:38:28.774Z,33.40
2022-12-23T12:39:28.677Z,41.70
2022-12-23T12:40:28.631Z,42.90
2022-12-23T12:41:28.676Z,37.30